Time;durP1;ratioP1;P1;durP2;ratioP2;P2;SDS_P1;SDS_P2;PMS_P1;PMS_P2;Temp;Humidity;BMP_temperature;BMP_pressure;BME280_temperature;BME280_humidity;BME280_pressure;Samples;Min_cycle;Max_cycle;Signal;HPM_P1;HPM_P2
2021/12/08 00:01:01;;;;;;;6.63;3.72;;;;;;;;;;4958126;28;93294;-66
2021/12/08 00:03:28;;;;;;;8.40;3.72;;;;;;;;;;4973837;28;94870;-65
2021/12/08 00:05:58;;;;;;;7.65;3.42;;;;;;;;;;4972788;28;94691;-66
2021/12/08 00:08:27;;;;;;;9.77;3.85;;;;;;;;;;4952925;28;94125;-65
2021/12/08 00:13:27;;;;;;;12.70;3.65;;;;;;;;;;4974628;28;93615;-66
2021/12/08 00:15:54;;;;;;;;;;;;;;;;;;4971642;28;92400;-66
2021/12/08 00:18:25;;;;;;;6.28;3.05;;;;;;;;;;4976152;28;123315;-66
2021/12/08 00:20:53;;;;;;;10.07;3.72;;;;;;;;;;4975130;28;93421;-66
2021/12/08 00:23:20;;;;;;;10.40;3.10;;;;;;;;;;4974051;28;92689;-66
2021/12/08 00:25:47;;;;;;;6.82;3.10;;;;;;;;;;4975214;28;92468;-66
2021/12/08 00:28:14;;;;;;;7.07;2.60;;;;;;;;;;4973914;28;95729;-66
2021/12/08 00:30:41;;;;;;;7.43;3.15;;;;;;;;;;4975002;28;92546;-66
2021/12/08 00:33:08;;;;;;;9.48;3.33;;;;;;;;;;4978123;28;92475;-66
2021/12/08 00:35:36;;;;;;;6.05;2.70;;;;;;;;;;4975029;28;92423;-65
2021/12/08 00:38:04;;;;;;;5.38;2.92;;;;;;;;;;4968548;28;93415;-65
2021/12/08 00:40:30;;;;;;;9.05;3.17;;;;;;;;;;4974742;28;93236;-65
2021/12/08 00:42:57;;;;;;;9.30;3.60;;;;;;;;;;4974933;28;92484;-65
2021/12/08 00:45:24;;;;;;;10.10;3.17;;;;;;;;;;4974443;28;93554;-66
2021/12/08 00:47:51;;;;;;;10.48;2.97;;;;;;;;;;4975357;28;94530;-65
2021/12/08 00:50:18;;;;;;;8.73;3.00;;;;;;;;;;4974155;28;92461;-66
2021/12/08 00:52:45;;;;;;;5.32;2.65;;;;;;;;;;4958858;28;94981;-65
2021/12/08 00:55:12;;;;;;;10.68;3.20;;;;;;;;;;4971066;28;92472;-66
2021/12/08 00:57:38;;;;;;;7.93;3.40;;;;;;;;;;4968310;28;92501;-66
2021/12/08 01:00:10;;;;;;;7.15;3.28;;;;;;;;;;4956600;28;92344;-66
2021/12/08 01:02:39;;;;;;;7.60;3.22;;;;;;;;;;4974661;28;93155;-66
2021/12/08 01:05:06;;;;;;;6.95;3.60;;;;;;;;;;4974444;28;92287;-65
2021/12/08 01:07:33;;;;;;;7.07;2.90;;;;;;;;;;4952021;28;92645;-66
2021/12/08 01:09:59;;;;;;;11.05;3.47;;;;;;;;;;4957378;28;91657;-66
2021/12/08 01:12:35;;;;;;;5.10;3.25;;;;;;;;;;4958282;28;93669;-66
2021/12/08 01:15:02;;;;;;;6.63;3.42;;;;;;;;;;4962636;28;92651;-65
2021/12/08 01:17:29;;;;;;;9.88;3.72;;;;;;;;;;4944363;28;94764;-65
2021/12/08 01:19:55;;;;;;;7.10;3.03;;;;;;;;;;4974666;28;96487;-66
2021/12/08 01:22:21;;;;;;;6.93;3.40;;;;;;;;;;4974037;28;92449;-65
2021/12/08 01:24:48;;;;;;;7.10;3.22;;;;;;;;;;4973951;28;93394;-66
2021/12/08 01:27:14;;;;;;;7.72;3.65;;;;;;;;;;4970544;28;93148;-66
2021/12/08 01:29:40;;;;;;;5.18;3.20;;;;;;;;;;4974090;28;92432;-65
2021/12/08 01:32:07;;;;;;;7.38;3.38;;;;;;;;;;4960414;28;92404;-66
2021/12/08 01:34:34;;;;;;;6.03;3.97;;;;;;;;;;4974546;28;91797;-66
2021/12/08 01:37:01;;;;;;;6.97;3.60;;;;;;;;;;4977228;28;92471;-66
2021/12/08 01:39:27;;;;;;;12.25;3.72;;;;;;;;;;4956337;28;93793;-66
2021/12/08 01:41:54;;;;;;;6.15;3.72;;;;;;;;;;4972085;28;94799;-66
2021/12/08 01:47:05;;;;;;;10.13;3.95;;;;;;;;;;4973740;28;93767;-66
2021/12/08 01:49:32;;;;;;;5.03;3.67;;;;;;;;;;4973185;28;92459;-66
2021/12/08 01:51:58;;;;;;;5.15;3.45;;;;;;;;;;4972885;28;92437;-65
2021/12/08 01:54:25;;;;;;;10.77;4.40;;;;;;;;;;4974008;28;92376;-65
2021/12/08 01:56:51;;;;;;;10.52;4.18;;;;;;;;;;4973072;28;92938;-66
2021/12/08 01:59:17;;;;;;;8.73;4.38;;;;;;;;;;4975724;28;92426;-66
2021/12/08 02:01:44;;;;;;;8.30;4.55;;;;;;;;;;4972492;28;94050;-66
2021/12/08 02:04:11;;;;;;;10.57;4.20;;;;;;;;;;4973981;28;92413;-66
2021/12/08 02:06:40;;;;;;;7.57;4.22;;;;;;;;;;4972012;28;95028;-65
2021/12/08 02:09:12;;;;;;;7.88;4.03;;;;;;;;;;4951302;28;92537;-66
2021/12/08 02:11:39;;;;;;;7.47;4.57;;;;;;;;;;4973754;28;92280;-66
2021/12/08 02:14:06;;;;;;;5.00;3.72;;;;;;;;;;4973255;28;92412;-65
2021/12/08 02:16:32;;;;;;;7.63;4.30;;;;;;;;;;4974144;28;92628;-66
2021/12/08 02:18:59;;;;;;;4.93;3.85;;;;;;;;;;4966748;28;93306;-65
2021/12/08 02:21:30;;;;;;;12.45;4.18;;;;;;;;;;4976078;28;93866;-66
2021/12/08 02:23:58;;;;;;;6.43;4.05;;;;;;;;;;4973566;28;92083;-66
2021/12/08 02:26:25;;;;;;;9.75;4.25;;;;;;;;;;4955591;28;92885;-66
2021/12/08 02:28:53;;;;;;;5.75;3.78;;;;;;;;;;4973383;28;92341;-66
2021/12/08 02:31:28;;;;;;;6.90;3.85;;;;;;;;;;4968598;28;94858;-66
2021/12/08 02:47:52;;;;;;;8.35;2.72;;;;;;;;;;4976529;28;96182;-66
2021/12/08 02:50:23;;;;;;;6.40;2.85;;;;;;;;;;4976096;28;92022;-66
2021/12/08 02:52:51;;;;;;;6.60;2.78;;;;;;;;;;4973697;28;92454;-66
2021/12/08 02:55:18;;;;;;;9.25;3.25;;;;;;;;;;4974395;28;92480;-66
2021/12/08 02:57:44;;;;;;;10.00;2.88;;;;;;;;;;4974226;28;95004;-66
2021/12/08 03:00:13;;;;;;;5.50;3.03;;;;;;;;;;4958478;28;96321;-66
2021/12/08 03:02:39;;;;;;;9.30;2.90;;;;;;;;;;4975383;28;92457;-66
2021/12/08 03:05:05;;;;;;;9.10;2.70;;;;;;;;;;4978888;28;92546;-66
2021/12/08 03:07:32;;;;;;;8.32;2.72;;;;;;;;;;4975955;28;94709;-66
2021/12/08 03:10:06;;;;;;;8.32;2.90;;;;;;;;;;4976653;28;92278;-65
2021/12/08 03:12:32;;;;;;;9.25;3.00;;;;;;;;;;4973848;28;93525;-67
2021/12/08 03:14:58;;;;;;;11.93;2.85;;;;;;;;;;4959453;28;91723;-65
2021/12/08 03:17:24;;;;;;;7.70;2.67;;;;;;;;;;4976169;28;92729;-65
2021/12/08 03:19:51;;;;;;;6.15;2.80;;;;;;;;;;4976025;28;92448;-65
2021/12/08 03:22:17;;;;;;;11.35;2.72;;;;;;;;;;4973476;28;95997;-65
2021/12/08 03:24:46;;;;;;;8.20;2.60;;;;;;;;;;4976333;28;92375;-65
2021/12/08 03:27:17;;;;;;;10.70;2.80;;;;;;;;;;4979319;28;93118;-65
2021/12/08 03:32:15;;;;;;;8.50;2.83;;;;;;;;;;4975886;28;93164;-65
2021/12/08 03:34:49;;;;;;;7.22;2.60;;;;;;;;;;4975136;28;93973;-65
2021/12/08 03:37:17;;;;;;;7.07;2.47;;;;;;;;;;4974867;28;92531;-67
2021/12/08 03:39:43;;;;;;;15.32;3.00;;;;;;;;;;4964854;28;93847;-65
2021/12/08 03:42:10;;;;;;;7.82;2.47;;;;;;;;;;4974991;28;93438;-65
2021/12/08 03:44:37;;;;;;;10.38;2.50;;;;;;;;;;4957510;28;92781;-65
2021/12/08 03:47:12;;;;;;;9.27;3.15;;;;;;;;;;4973030;28;94873;-65
2021/12/08 03:49:39;;;;;;;15.60;3.55;;;;;;;;;;4970796;28;95279;-65
2021/12/08 03:52:05;;;;;;;8.75;2.88;;;;;;;;;;4975525;28;92456;-65
2021/12/08 03:54:31;;;;;;;13.35;3.38;;;;;;;;;;4975141;28;92314;-65
2021/12/08 03:56:58;;;;;;;14.13;3.28;;;;;;;;;;4974992;28;93772;-65
2021/12/08 03:59:24;;;;;;;7.97;2.80;;;;;;;;;;4974819;28;92965;-65
2021/12/08 04:01:51;;;;;;;17.38;3.28;;;;;;;;;;4975296;28;94148;-65
2021/12/08 04:04:17;;;;;;;13.85;3.28;;;;;;;;;;4972431;28;92313;-65
2021/12/08 04:06:50;;;;;;;13.18;2.72;;;;;;;;;;4975438;28;92880;-65
2021/12/08 04:09:25;;;;;;;10.95;2.40;;;;;;;;;;4975513;28;93185;-65
2021/12/08 04:11:52;;;;;;;8.15;2.42;;;;;;;;;;4976227;28;94837;-65
2021/12/08 04:14:21;;;;;;;6.82;2.47;;;;;;;;;;4974735;28;94014;-65
2021/12/08 04:16:50;;;;;;;21.50;3.15;;;;;;;;;;4975572;28;92475;-65
2021/12/08 04:19:17;;;;;;;10.07;3.05;;;;;;;;;;4974615;28;93736;-65
2021/12/08 04:21:44;;;;;;;6.30;2.20;;;;;;;;;;4974358;28;92506;-65
2021/12/08 04:24:10;;;;;;;8.43;2.40;;;;;;;;;;4974597;28;92403;-65
2021/12/08 04:26:40;;;;;;;11.38;2.60;;;;;;;;;;4974011;28;92460;-65
2021/12/08 04:29:08;;;;;;;8.20;2.50;;;;;;;;;;4975253;28;92228;-65
2021/12/08 04:31:35;;;;;;;7.30;2.38;;;;;;;;;;4957848;28;92629;-65
2021/12/08 04:34:04;;;;;;;9.68;2.47;;;;;;;;;;4977103;28;93153;-65
2021/12/08 04:36:38;;;;;;;6.93;2.92;;;;;;;;;;4956292;28;96355;-65
2021/12/08 04:39:12;;;;;;;9.52;2.05;;;;;;;;;;4972516;28;95614;-65
2021/12/08 04:41:43;;;;;;;14.35;2.63;;;;;;;;;;4974784;28;93824;-65
2021/12/08 04:44:33;;;;;;;9.32;2.20;;;;;;;;;;4975246;28;92372;-65
2021/12/08 04:52:13;;;;;;;8.77;2.80;;;;;;;;;;4974709;28;115584;-65
2021/12/08 05:01:09;;;;;;;8.85;2.22;;;;;;;;;;4967607;28;94858;-65
2021/12/08 05:03:51;;;;;;;13.57;1.80;;;;;;;;;;4970743;28;96013;-65
2021/12/08 05:08:51;;;;;;;9.27;2.38;;;;;;;;;;4973878;28;92372;-65
2021/12/08 05:11:28;;;;;;;5.35;2.05;;;;;;;;;;4973469;28;93205;-65
2021/12/08 05:14:00;;;;;;;7.97;1.90;;;;;;;;;;4974421;28;92420;-65
2021/12/08 05:16:29;;;;;;;14.68;2.45;;;;;;;;;;4974317;28;93584;-65
2021/12/08 05:18:57;;;;;;;12.90;2.35;;;;;;;;;;4977921;28;93984;-65
2021/12/08 05:21:38;;;;;;;9.40;1.70;;;;;;;;;;4973894;28;92037;-65
2021/12/08 05:24:19;;;;;;;8.98;1.65;;;;;;;;;;4973989;28;92720;-65
2021/12/08 05:26:49;;;;;;;12.35;2.08;;;;;;;;;;4973836;28;92506;-65
2021/12/08 05:29:18;;;;;;;15.13;1.80;;;;;;;;;;4972571;28;94992;-65
2021/12/08 05:31:45;;;;;;;10.52;1.75;;;;;;;;;;4972676;28;92540;-65
2021/12/08 05:34:11;;;;;;;12.50;2.05;;;;;;;;;;4974851;28;92415;-65
2021/12/08 05:36:38;;;;;;;8.43;1.95;;;;;;;;;;4974020;28;92409;-65
2021/12/08 05:39:10;;;;;;;8.00;2.05;;;;;;;;;;4956626;28;93596;-65
2021/12/08 05:41:38;;;;;;;7.03;1.98;;;;;;;;;;4977053;28;92467;-65
2021/12/08 05:44:04;;;;;;;7.85;2.00;;;;;;;;;;4974055;28;93740;-65
2021/12/08 05:46:32;;;;;;;10.02;1.65;;;;;;;;;;4974637;28;91533;-65
2021/12/08 05:48:59;;;;;;;13.90;1.77;;;;;;;;;;4965755;28;92568;-65
2021/12/08 05:51:28;;;;;;;7.40;2.17;;;;;;;;;;4973472;28;92444;-65
2021/12/08 05:53:56;;;;;;;8.18;2.25;;;;;;;;;;4971914;28;95144;-65
2021/12/08 05:56:23;;;;;;;11.45;2.35;;;;;;;;;;4974225;28;94563;-65
2021/12/08 05:58:50;;;;;;;11.30;2.35;;;;;;;;;;4973480;28;92440;-65
2021/12/08 06:01:37;;;;;;;7.57;1.70;;;;;;;;;;4960541;28;93715;-65
2021/12/08 06:04:04;;;;;;;12.27;1.98;;;;;;;;;;4962515;28;92485;-65
2021/12/08 06:06:31;;;;;;;8.80;1.90;;;;;;;;;;4973023;28;92413;-65
2021/12/08 06:08:57;;;;;;;8.27;2.28;;;;;;;;;;4955909;28;93128;-65
2021/12/08 06:11:25;;;;;;;8.05;1.65;;;;;;;;;;4972713;28;91908;-65
2021/12/08 06:13:52;;;;;;;8.23;1.60;;;;;;;;;;4973543;28;92476;-65
2021/12/08 06:16:21;;;;;;;9.18;2.05;;;;;;;;;;4973407;28;93290;-65
2021/12/08 06:18:51;;;;;;;3.90;1.52;;;;;;;;;;4971530;28;95737;-65
2021/12/08 06:21:21;;;;;;;11.70;2.25;;;;;;;;;;4975096;28;92186;-65
2021/12/08 06:23:47;;;;;;;11.77;1.93;;;;;;;;;;4957459;28;92984;-65
2021/12/08 06:26:15;;;;;;;13.32;2.65;;;;;;;;;;4978242;28;92474;-65
2021/12/08 06:28:42;;;;;;;9.38;1.88;;;;;;;;;;4975732;28;92444;-65
2021/12/08 06:31:08;;;;;;;6.75;2.30;;;;;;;;;;4977259;28;93316;-65
2021/12/08 06:33:35;;;;;;;15.73;2.63;;;;;;;;;;4977293;28;92418;-65
2021/12/08 06:36:18;;;;;;;15.68;2.22;;;;;;;;;;4971151;28;93243;-65
2021/12/08 06:38:45;;;;;;;13.57;2.22;;;;;;;;;;4957447;28;93640;-66
2021/12/08 06:41:37;;;;;;;16.35;2.40;;;;;;;;;;4956693;28;92526;-65
2021/12/08 06:44:10;;;;;;;9.30;1.95;;;;;;;;;;4960869;28;94889;-66
2021/12/08 06:46:38;;;;;;;10.32;2.20;;;;;;;;;;4977685;28;92468;-66
2021/12/08 06:49:07;;;;;;;6.43;1.73;;;;;;;;;;4980072;28;92393;-65
2021/12/08 06:51:36;;;;;;;10.98;1.80;;;;;;;;;;4976731;28;92352;-66
2021/12/08 06:54:08;;;;;;;15.38;2.40;;;;;;;;;;4976694;28;92495;-66
2021/12/08 06:56:37;;;;;;;7.90;2.05;;;;;;;;;;4976108;28;93260;-66
2021/12/08 06:59:08;;;;;;;11.23;2.33;;;;;;;;;;4976673;28;94888;-66
2021/12/08 07:01:46;;;;;;;10.30;1.73;;;;;;;;;;4960005;28;91710;-66
2021/12/08 07:07:01;;;;;;;6.50;1.80;;;;;;;;;;4976245;28;92472;-65
2021/12/08 07:09:39;;;;;;;15.50;2.63;;;;;;;;;;4977802;28;94771;-66
2021/12/08 07:12:11;;;;;;;7.03;1.98;;;;;;;;;;4954810;28;92742;-65
2021/12/08 07:14:38;;;;;;;12.18;2.10;;;;;;;;;;4976351;28;92638;-65
2021/12/08 07:17:08;;;;;;;15.27;2.75;;;;;;;;;;4977159;28;93229;-66
2021/12/08 07:19:44;;;;;;;8.43;1.98;;;;;;;;;;4958710;28;92429;-66
2021/12/08 07:22:16;;;;;;;9.93;2.22;;;;;;;;;;4976268;28;92898;-65
2021/12/08 07:24:44;;;;;;;5.72;1.80;;;;;;;;;;4975926;28;93477;-65
2021/12/08 07:27:16;;;;;;;13.38;2.08;;;;;;;;;;4976206;28;91783;-66
2021/12/08 07:29:44;;;;;;;13.65;3.15;;;;;;;;;;4975879;28;92525;-66
2021/12/08 07:32:12;;;;;;;21.00;2.67;;;;;;;;;;4977972;28;93647;-65
2021/12/08 07:34:39;;;;;;;11.02;1.98;;;;;;;;;;4974318;28;94788;-65
2021/12/08 07:37:09;;;;;;;12.35;2.13;;;;;;;;;;4959104;28;96937;-65
2021/12/08 07:39:42;;;;;;;9.83;2.00;;;;;;;;;;4957493;28;93174;-65
2021/12/08 07:42:11;;;;;;;9.38;2.10;;;;;;;;;;4975723;28;92412;-65
2021/12/08 07:44:38;;;;;;;17.20;2.45;;;;;;;;;;4975534;28;92445;-65
2021/12/08 07:47:07;;;;;;;11.50;1.92;;;;;;;;;;4976312;28;93813;-65
2021/12/08 07:49:36;;;;;;;15.57;2.40;;;;;;;;;;4975592;28;92412;-65
2021/12/08 07:52:07;;;;;;;11.15;2.35;;;;;;;;;;4975836;28;93176;-66
2021/12/08 07:54:34;;;;;;;7.30;1.80;;;;;;;;;;4978365;28;92492;-65
2021/12/08 07:57:03;;;;;;;17.80;2.55;;;;;;;;;;4975841;28;92402;-66
2021/12/08 07:59:30;;;;;;;14.75;2.67;;;;;;;;;;4973920;28;96971;-66
2021/12/08 08:01:59;;;;;;;17.15;2.67;;;;;;;;;;4975213;28;92520;-66
2021/12/08 08:04:26;;;;;;;18.05;2.50;;;;;;;;;;4958352;28;92490;-66
2021/12/08 08:06:58;;;;;;;14.43;2.55;;;;;;;;;;4958623;28;94286;-66
2021/12/08 08:09:27;;;;;;;11.18;2.25;;;;;;;;;;4958462;28;92510;-66
2021/12/08 08:11:57;;;;;;;15.77;3.13;;;;;;;;;;4975716;28;94457;-67
2021/12/08 08:14:29;;;;;;;11.18;2.65;;;;;;;;;;4975879;28;93904;-68
2021/12/08 08:16:58;;;;;;;12.80;2.30;;;;;;;;;;4977484;28;91866;-67
2021/12/08 08:19:28;;;;;;;10.43;2.20;;;;;;;;;;4957569;28;93771;-67
2021/12/08 08:21:58;;;;;;;12.98;2.30;;;;;;;;;;4969695;28;94001;-67
2021/12/08 08:24:25;;;;;;;8.88;1.95;;;;;;;;;;4972350;28;94831;-67
2021/12/08 08:26:53;;;;;;;14.50;2.28;;;;;;;;;;4958115;28;92313;-67
2021/12/08 08:29:20;;;;;;;14.15;2.40;;;;;;;;;;4975306;28;92474;-67
2021/12/08 08:31:53;;;;;;;20.85;3.15;;;;;;;;;;4975081;28;92414;-67
2021/12/08 08:34:19;;;;;;;17.88;2.30;;;;;;;;;;4974269;28;93355;-67
2021/12/08 08:36:46;;;;;;;12.15;2.63;;;;;;;;;;4972687;28;92496;-67
2021/12/08 08:39:15;;;;;;;11.80;2.13;;;;;;;;;;4961040;28;92483;-67
2021/12/08 08:41:46;;;;;;;11.18;2.10;;;;;;;;;;4976182;28;91690;-67
2021/12/08 08:44:15;;;;;;;13.13;2.15;;;;;;;;;;4973716;28;92528;-67
2021/12/08 08:46:45;;;;;;;10.55;1.88;;;;;;;;;;4974496;28;92649;-67
2021/12/08 08:49:13;;;;;;;15.70;1.93;;;;;;;;;;4972451;28;94978;-67
2021/12/08 08:51:42;;;;;;;8.27;2.28;;;;;;;;;;4974906;28;94477;-67
2021/12/08 08:54:10;;;;;;;12.88;2.05;;;;;;;;;;4974733;28;93477;-67
2021/12/08 08:56:42;;;;;;;10.02;2.15;;;;;;;;;;4975132;28;92560;-67
2021/12/08 08:59:13;;;;;;;8.07;1.98;;;;;;;;;;4957522;28;92411;-67
2021/12/08 09:01:43;;;;;;;6.72;2.15;;;;;;;;;;4960610;28;93934;-67
2021/12/08 09:04:24;;;;;;;5.47;1.63;;;;;;;;;;4975204;28;93730;-67
2021/12/08 09:06:51;;;;;;;11.73;1.85;;;;;;;;;;4956993;28;92835;-67
2021/12/08 09:09:20;;;;;;;5.63;1.70;;;;;;;;;;4975030;28;92550;-67
2021/12/08 09:11:50;;;;;;;13.60;2.50;;;;;;;;;;4957426;28;92558;-67
2021/12/08 09:14:42;;;;;;;10.43;2.03;;;;;;;;;;4973039;28;95945;-67
2021/12/08 09:17:14;;;;;;;9.13;1.80;;;;;;;;;;4970288;28;92278;-67
2021/12/08 09:19:43;;;;;;;7.47;1.50;;;;;;;;;;4974145;28;92604;-67
2021/12/08 09:22:16;;;;;;;7.80;1.60;;;;;;;;;;4977496;28;92299;-67
2021/12/08 09:24:58;;;;;;;8.15;2.20;;;;;;;;;;4973571;28;92421;-67
2021/12/08 09:27:26;;;;;;;6.18;1.77;;;;;;;;;;4972423;28;93122;-67
2021/12/08 09:29:57;;;;;;;8.13;2.13;;;;;;;;;;4973906;28;92471;-67
2021/12/08 09:32:38;;;;;;;11.02;2.30;;;;;;;;;;4973633;28;93341;-67
2021/12/08 09:35:24;;;;;;;11.30;2.22;;;;;;;;;;4954324;28;92666;-67
2021/12/08 09:37:55;;;;;;;9.88;1.95;;;;;;;;;;4955335;28;92443;-67
2021/12/08 09:40:33;;;;;;;8.38;2.00;;;;;;;;;;4953477;28;94858;-67
2021/12/08 09:43:05;;;;;;;20.52;2.35;;;;;;;;;;4944252;28;94032;-67
2021/12/08 09:45:37;;;;;;;12.77;2.33;;;;;;;;;;4977798;28;92680;-67
2021/12/08 09:48:06;;;;;;;12.27;2.35;;;;;;;;;;4972810;28;92632;-67
2021/12/08 09:50:33;;;;;;;10.43;2.47;;;;;;;;;;4973199;28;92520;-67
2021/12/08 09:53:00;;;;;;;15.23;2.58;;;;;;;;;;4974719;28;92379;-67
2021/12/08 09:55:27;;;;;;;8.60;2.15;;;;;;;;;;4975667;28;92270;-67
2021/12/08 09:57:53;;;;;;;9.70;1.98;;;;;;;;;;4969307;28;91656;-67
2021/12/08 10:00:26;;;;;;;7.18;1.60;;;;;;;;;;4977662;28;92367;-67
2021/12/08 10:02:58;;;;;;;10.90;2.05;;;;;;;;;;4956886;28;93514;-66
2021/12/08 10:05:27;;;;;;;11.15;2.13;;;;;;;;;;4974341;28;95034;-66
2021/12/08 10:07:53;;;;;;;9.65;1.92;;;;;;;;;;4956039;28;95503;-66
2021/12/08 10:10:20;;;;;;;7.45;2.13;;;;;;;;;;4977374;28;92446;-67
2021/12/08 10:12:46;;;;;;;6.38;2.00;;;;;;;;;;4977190;28;92424;-68
2021/12/08 10:15:14;;;;;;;8.75;2.10;;;;;;;;;;4977030;28;93498;-67
2021/12/08 10:17:41;;;;;;;10.80;2.25;;;;;;;;;;4977364;28;92464;-68
2021/12/08 10:20:16;;;;;;;8.68;2.17;;;;;;;;;;4958536;28;92352;-68
2021/12/08 10:22:46;;;;;;;6.90;1.98;;;;;;;;;;4977210;28;91719;-68
2021/12/08 10:25:14;;;;;;;12.20;2.50;;;;;;;;;;4976332;28;92327;-68
2021/12/08 10:27:59;;;;;;;12.32;1.92;;;;;;;;;;4973679;28;95598;-68
2021/12/08 10:30:26;;;;;;;6.85;1.92;;;;;;;;;;4978851;28;95850;-68
2021/12/08 10:32:53;;;;;;;9.48;2.13;;;;;;;;;;4978022;28;94351;-68
2021/12/08 10:35:41;;;;;;;6.95;1.88;;;;;;;;;;4975227;28;92457;-68
2021/12/08 10:38:08;;;;;;;5.60;1.92;;;;;;;;;;4957766;28;94025;-68
2021/12/08 10:40:34;;;;;;;8.57;2.03;;;;;;;;;;4960201;28;93079;-68
2021/12/08 10:43:16;;;;;;;10.05;2.15;;;;;;;;;;4957240;28;93447;-67
2021/12/08 10:45:42;;;;;;;7.00;1.90;;;;;;;;;;4969536;28;92457;-67
2021/12/08 10:48:10;;;;;;;10.80;2.58;;;;;;;;;;4977876;28;93144;-68
2021/12/08 10:56:24;;;;;;;8.70;2.08;;;;;;;;;;4975093;28;94907;-67
2021/12/08 10:58:51;;;;;;;;;;;;;;;;;;4977472;28;92433;-67
2021/12/08 11:01:19;;;;;;;5.53;1.73;;;;;;;;;;4977027;28;123652;-67
2021/12/08 11:03:46;;;;;;;3.58;1.48;;;;;;;;;;4958882;28;92740;-67
2021/12/08 11:06:15;;;;;;;8.57;2.10;;;;;;;;;;4975263;28;92391;-67
2021/12/08 11:08:46;;;;;;;7.25;2.00;;;;;;;;;;4974897;28;93385;-67
2021/12/08 11:11:12;;;;;;;;;;;;;;;;;;4976137;28;92574;-67
2021/12/08 11:13:40;;;;;;;5.15;1.48;;;;;;;;;;4977395;28;118526;-67
2021/12/08 11:16:12;;;;;;;5.18;1.52;;;;;;;;;;4958908;28;92617;-67
2021/12/08 11:18:49;;;;;;;7.20;2.20;;;;;;;;;;4956785;28;92414;-67
2021/12/08 11:21:25;;;;;;;6.95;1.88;;;;;;;;;;4973298;28;94769;-67
2021/12/08 11:24:13;;;;;;;4.85;1.88;;;;;;;;;;4976278;28;93497;-67
2021/12/08 11:26:43;;;;;;;2.83;1.42;;;;;;;;;;4976284;28;92412;-67
2021/12/08 11:29:11;;;;;;;5.43;1.83;;;;;;;;;;4975255;28;93586;-67
2021/12/08 11:31:42;;;;;;;9.45;2.38;;;;;;;;;;4976202;28;94204;-67
2021/12/08 11:34:25;;;;;;;4.93;1.70;;;;;;;;;;4976073;28;92260;-67
2021/12/08 11:36:54;;;;;;;4.65;1.88;;;;;;;;;;4978720;28;92380;-67
2021/12/08 11:39:26;;;;;;;4.43;1.67;;;;;;;;;;4976091;28;91754;-67
2021/12/08 11:41:54;;;;;;;5.70;1.52;;;;;;;;;;4958538;28;92967;-67
2021/12/08 11:44:26;;;;;;;5.47;1.67;;;;;;;;;;4976366;28;93329;-67
2021/12/08 11:47:00;;;;;;;7.68;1.60;;;;;;;;;;4974457;28;94786;-67
2021/12/08 11:49:26;;;;;;;5.57;2.05;;;;;;;;;;4975373;28;95676;-67
2021/12/08 11:51:58;;;;;;;6.82;1.80;;;;;;;;;;4974620;28;92393;-67
2021/12/08 11:54:27;;;;;;;6.90;2.35;;;;;;;;;;4975970;28;92407;-66
2021/12/08 11:57:03;;;;;;;7.50;2.28;;;;;;;;;;4958611;28;92603;-66
2021/12/08 11:59:29;;;;;;;3.30;1.73;;;;;;;;;;4978820;28;93469;-67
2021/12/08 12:01:56;;;;;;;5.90;1.90;;;;;;;;;;4958136;28;93257;-67
2021/12/08 12:04:22;;;;;;;4.35;1.40;;;;;;;;;;4975649;28;91691;-66
2021/12/08 12:06:48;;;;;;;2.83;1.55;;;;;;;;;;4975613;28;92450;-66
2021/12/08 12:09:15;;;;;;;7.18;1.90;;;;;;;;;;4975760;28;92365;-66
2021/12/08 12:11:53;;;;;;;7.03;2.05;;;;;;;;;;4973473;28;95825;-66
2021/12/08 12:14:20;;;;;;;10.00;1.80;;;;;;;;;;4975728;28;92299;-67
2021/12/08 12:16:47;;;;;;;5.68;1.70;;;;;;;;;;4956312;28;94378;-66
2021/12/08 12:19:16;;;;;;;8.93;2.03;;;;;;;;;;4970051;28;92420;-66
2021/12/08 12:22:02;;;;;;;8.40;1.65;;;;;;;;;;4977807;28;92587;-67
2021/12/08 12:24:31;;;;;;;10.00;1.90;;;;;;;;;;4974423;28;93476;-67
2021/12/08 12:27:16;;;;;;;4.18;1.85;;;;;;;;;;4974882;28;92767;-68
2021/12/08 12:29:57;;;;;;;7.55;1.88;;;;;;;;;;4960239;28;91894;-67
2021/12/08 12:32:28;;;;;;;4.65;1.38;;;;;;;;;;4974531;28;93693;-67
2021/12/08 12:35:08;;;;;;;6.22;1.45;;;;;;;;;;4973829;28;93082;-67
2021/12/08 12:37:35;;;;;;;6.40;1.95;;;;;;;;;;4974437;28;95263;-67
2021/12/08 12:40:03;;;;;;;7.07;2.05;;;;;;;;;;4969450;28;92502;-67
2021/12/08 12:42:42;;;;;;;5.72;1.92;;;;;;;;;;4974696;28;92404;-67
2021/12/08 12:45:11;;;;;;;10.18;2.28;;;;;;;;;;4978785;28;92490;-67
2021/12/08 12:47:37;;;;;;;4.75;1.83;;;;;;;;;;4974906;28;92370;-64
2021/12/08 12:50:03;;;;;;;9.68;2.03;;;;;;;;;;4974352;28;93302;-66
2021/12/08 12:52:53;;;;;;;9.07;2.10;;;;;;;;;;4974134;28;92840;-66
2021/12/08 12:55:21;;;;;;;10.23;2.20;;;;;;;;;;4965024;28;91781;-66
2021/12/08 12:57:59;;;;;;;7.72;1.95;;;;;;;;;;4969368;28;93770;-66
2021/12/08 13:00:27;;;;;;;4.50;1.80;;;;;;;;;;4974708;28;92501;-66
2021/12/08 13:02:53;;;;;;;6.97;2.00;;;;;;;;;;4973054;28;94800;-67
2021/12/08 13:05:19;;;;;;;7.90;2.00;;;;;;;;;;4957355;28;98657;-66
2021/12/08 13:07:55;;;;;;;11.00;1.85;;;;;;;;;;4960207;28;93571;-66
2021/12/08 13:10:29;;;;;;;3.85;1.50;;;;;;;;;;4975009;28;93589;-65
2021/12/08 13:13:09;;;;;;;6.55;1.42;;;;;;;;;;4975193;28;95818;-66
2021/12/08 13:15:37;;;;;;;4.40;1.70;;;;;;;;;;4955493;28;92434;-66
2021/12/08 13:18:03;;;;;;;8.25;2.58;;;;;;;;;;4974742;28;94413;-66
2021/12/08 13:20:32;;;;;;;8.77;2.50;;;;;;;;;;4957883;28;91703;-66
2021/12/08 13:23:01;;;;;;;8.00;2.72;;;;;;;;;;4974678;28;92499;-66
2021/12/08 13:25:43;;;;;;;4.97;2.00;;;;;;;;;;4974391;28;92764;-66
2021/12/08 13:28:17;;;;;;;3.88;2.10;;;;;;;;;;4968874;28;94983;-66
2021/12/08 13:30:45;;;;;;;8.45;2.38;;;;;;;;;;4976543;28;92466;-65
2021/12/08 13:33:21;;;;;;;6.72;2.10;;;;;;;;;;4974374;28;92484;-66
2021/12/08 13:35:47;;;;;;;6.75;2.22;;;;;;;;;;4956133;28;92388;-67
2021/12/08 13:38:14;;;;;;;8.35;2.33;;;;;;;;;;4966705;28;94111;-66
2021/12/08 13:40:43;;;;;;;5.50;2.10;;;;;;;;;;4974028;28;92780;-66
2021/12/08 13:43:10;;;;;;;4.63;2.13;;;;;;;;;;4974257;28;92599;-66
2021/12/08 13:45:43;;;;;;;10.25;2.13;;;;;;;;;;4974534;28;93343;-65
2021/12/08 13:48:11;;;;;;;4.28;1.85;;;;;;;;;;4974325;28;94302;-65
2021/12/08 13:50:38;;;;;;;3.70;1.95;;;;;;;;;;4976335;28;92383;-67
2021/12/08 13:53:10;;;;;;;6.43;2.40;;;;;;;;;;4972572;28;97127;-66
2021/12/08 13:55:41;;;;;;;7.40;2.85;;;;;;;;;;4973931;28;92433;-66
2021/12/08 13:58:11;;;;;;;10.90;3.63;;;;;;;;;;4964593;28;93068;-66
2021/12/08 14:00:39;;;;;;;7.53;3.53;;;;;;;;;;4951593;28;93521;-66
2021/12/08 14:03:08;;;;;;;8.65;2.53;;;;;;;;;;4957524;28;92521;-66
2021/12/08 14:05:36;;;;;;;9.40;2.80;;;;;;;;;;4956303;28;94000;-66
2021/12/08 14:08:05;;;;;;;4.80;2.10;;;;;;;;;;4973858;28;92679;-67
2021/12/08 14:10:35;;;;;;;3.38;1.73;;;;;;;;;;4973013;28;91551;-67
2021/12/08 14:13:09;;;;;;;6.72;2.35;;;;;;;;;;4976608;28;92514;-67
2021/12/08 14:15:41;;;;;;;7.95;2.25;;;;;;;;;;4974265;28;92490;-66
2021/12/08 14:18:22;;;;;;;5.53;2.38;;;;;;;;;;4954414;28;94931;-67
2021/12/08 14:20:51;;;;;;;6.40;2.38;;;;;;;;;;4972689;28;92470;-67
2021/12/08 14:23:18;;;;;;;6.22;2.72;;;;;;;;;;4974257;28;92378;-66
2021/12/08 14:25:46;;;;;;;7.53;2.63;;;;;;;;;;4956248;28;92376;-66
2021/12/08 14:28:38;;;;;;;11.57;2.72;;;;;;;;;;4973584;28;92437;-66
2021/12/08 14:31:07;;;;;;;6.57;2.20;;;;;;;;;;4971402;28;92479;-67
2021/12/08 14:33:33;;;;;;;4.60;2.25;;;;;;;;;;4953729;28;93182;-66
2021/12/08 14:36:02;;;;;;;5.93;2.10;;;;;;;;;;4957592;28;91607;-66
2021/12/08 14:38:28;;;;;;;18.30;2.53;;;;;;;;;;4954334;28;92746;-66
2021/12/08 14:40:55;;;;;;;4.47;2.30;;;;;;;;;;4972693;28;94103;-66
2021/12/08 14:43:33;;;;;;;10.13;2.10;;;;;;;;;;4975112;28;94813;-66
2021/12/08 14:46:17;;;;;;;9.25;2.20;;;;;;;;;;4976569;28;95608;-66
2021/12/08 14:49:15;;;;;;;11.07;2.60;;;;;;;;;;4976568;28;93804;-66
2021/12/08 14:51:41;;;;;;;10.65;3.28;;;;;;;;;;4959569;28;92788;-66
2021/12/08 14:54:09;;;;;;;13.15;2.50;;;;;;;;;;4976271;28;93327;-66
2021/12/08 14:56:36;;;;;;;8.90;2.42;;;;;;;;;;4976379;28;92525;-66
2021/12/08 14:59:03;;;;;;;12.63;2.60;;;;;;;;;;4979776;28;92436;-66
2021/12/08 15:01:29;;;;;;;9.05;2.50;;;;;;;;;;4976883;28;91716;-66
2021/12/08 15:03:56;;;;;;;6.40;3.30;;;;;;;;;;4976729;28;92467;-66
2021/12/08 15:06:23;;;;;;;13.77;3.30;;;;;;;;;;4976962;28;93512;-66
2021/12/08 15:08:50;;;;;;;13.13;3.17;;;;;;;;;;4974371;28;96049;-66
2021/12/08 15:11:18;;;;;;;8.85;2.53;;;;;;;;;;4959089;28;92431;-66
2021/12/08 15:13:44;;;;;;;6.63;2.15;;;;;;;;;;4958397;28;93353;-67
2021/12/08 15:16:11;;;;;;;6.57;2.10;;;;;;;;;;4958833;28;93663;-66
2021/12/08 15:18:38;;;;;;;8.80;1.98;;;;;;;;;;4976216;28;92591;-66
2021/12/08 15:21:10;;;;;;;5.90;1.60;;;;;;;;;;4979112;28;95106;-66
2021/12/08 15:23:50;;;;;;;2.47;1.60;;;;;;;;;;4976068;28;92458;-66
2021/12/08 15:26:19;;;;;;;9.85;1.80;;;;;;;;;;4976607;28;93655;-66
2021/12/08 15:28:46;;;;;;;9.73;2.15;;;;;;;;;;4974070;28;93282;-66
2021/12/08 15:31:13;;;;;;;9.38;2.45;;;;;;;;;;4963024;28;92449;-66
2021/12/08 15:33:40;;;;;;;11.80;2.58;;;;;;;;;;4974694;28;94725;-66
2021/12/08 15:36:12;;;;;;;11.52;2.58;;;;;;;;;;4976783;28;94837;-66
2021/12/08 15:38:40;;;;;;;9.95;2.58;;;;;;;;;;4975689;28;92440;-66